LSZH

Zürich Airport

Airport
ICAO code
LSZH
IATA Code
ZRH
Summary
ICAO Region
EUR
ICAO Territory
Location

Kloten, Zürich

Serving
Zürich
Elevation
1416 ft
Coordinates
47° 27' 53" N , 8° 32' 57" E
KCC
Dfb
Metar
Observation
LSZH 111620Z 04008KT CAVOK 27/11 Q1018 NOSIG
Station
Zurich-Kloten
Date/Time
2022-08-11 16:20:00
Wind direction
40°
Wind speed
08 kts
Lowest cloud amount
clouds and visibility OK
Temperature
27°C
Dew point
11°C
Humidity
36%
QNH
1018 hPa
Weather condition
n/a

An airport serving Grenchen, a municipality in the district of Lebern in the canton of Solothurn in Switzerland.

Climatology

Temperate Marine climate/Oceanic climate (Köppen climate classification Cfb).

Runways

Designator Length Width Surface Rops
10/28 2500 60 CON Yes/Yes
14/32 3300 60 CON Yes/Yes
16/34 3700 60 CON Yes/Yes

SKYbrary Partners:

Safety knowledge contributed by: